createdAt,value
2018-03-03T00:01:01.758Z,66.20
2018-03-03T00:03:36.786Z,66.10
2018-03-03T00:06:05.834Z,66.20
2018-03-03T00:08:35.976Z,66.20
2018-03-03T00:11:04.414Z,66.20
2018-03-03T00:13:34.084Z,66.70
2018-03-03T00:16:04.045Z,66.20
2018-03-03T00:18:33.986Z,66.50
2018-03-03T00:21:02.382Z,66.40
2018-03-03T00:23:31.396Z,66.50
2018-03-03T00:25:59.789Z,66.30
2018-03-03T00:28:29.017Z,66.80
2018-03-03T00:30:57.438Z,66.80
2018-03-03T00:33:26.286Z,66.80
2018-03-03T00:35:55.504Z,67.00
2018-03-03T00:38:24.244Z,67.00
2018-03-03T00:40:55.126Z,67.00
2018-03-03T00:43:23.937Z,66.90
2018-03-03T00:45:52.836Z,66.80
2018-03-03T00:48:21.869Z,66.80
2018-03-03T00:50:50.386Z,67.30
2018-03-03T00:53:20.227Z,67.20
2018-03-03T00:55:48.613Z,67.40
2018-03-03T00:58:17.887Z,67.40
2018-03-03T01:00:46.487Z,67.20
2018-03-03T01:03:15.396Z,67.00
2018-03-03T01:05:44.578Z,67.00
2018-03-03T01:08:16.518Z,66.90
2018-03-03T01:10:45.157Z,66.80
2018-03-03T01:13:14.888Z,66.60
2018-03-03T01:15:45.371Z,66.60
2018-03-03T01:18:15.323Z,67.00
2018-03-03T01:20:44.569Z,66.90
2018-03-03T01:23:13.052Z,66.90
2018-03-03T01:25:41.476Z,67.50
2018-03-03T01:28:10.731Z,67.40
2018-03-03T01:30:39.152Z,67.40
2018-03-03T01:33:08.314Z,67.00
2018-03-03T01:35:36.737Z,67.00
2018-03-03T01:38:06.363Z,67.40
2018-03-03T01:40:35.369Z,67.40
2018-03-03T01:43:03.733Z,67.20
2018-03-03T01:45:32.175Z,67.10
2018-03-03T01:48:00.538Z,67.00
2018-03-03T01:50:28.982Z,67.40
2018-03-03T01:52:57.349Z,67.90
2018-03-03T01:55:25.844Z,67.90
2018-03-03T01:57:54.310Z,67.20
2018-03-03T02:00:23.435Z,67.40
2018-03-03T02:02:51.917Z,67.30
2018-03-03T02:05:20.338Z,67.60
2018-03-03T02:07:49.801Z,67.50
2018-03-03T02:10:18.235Z,67.50
2018-03-03T02:12:46.850Z,67.60
2018-03-03T02:15:15.277Z,67.70
2018-03-03T02:17:44.923Z,67.40
2018-03-03T02:20:14.112Z,67.90
2018-03-03T02:22:43.064Z,67.70
2018-03-03T02:25:12.582Z,68.00
2018-03-03T02:27:43.589Z,68.00
2018-03-03T02:30:13.597Z,68.00
2018-03-03T02:32:42.522Z,68.00
2018-03-03T02:35:12.313Z,67.80
2018-03-03T02:37:41.357Z,67.80
2018-03-03T02:40:10.312Z,67.60
2018-03-03T02:42:39.548Z,67.70
2018-03-03T02:45:07.922Z,67.80
2018-03-03T02:47:36.546Z,67.70
2018-03-03T02:50:04.934Z,67.70
2018-03-03T02:52:33.363Z,67.50
2018-03-03T02:55:02.528Z,67.50
2018-03-03T02:57:30.898Z,67.50
2018-03-03T02:59:58.653Z,67.60
2018-03-03T03:02:27.026Z,67.70
2018-03-03T03:04:55.495Z,67.80
2018-03-03T03:07:23.924Z,67.60
2018-03-03T03:09:53.111Z,68.00
2018-03-03T03:12:21.559Z,68.00
2018-03-03T03:14:49.934Z,67.70
2018-03-03T03:17:18.326Z,67.50
2018-03-03T03:19:46.755Z,67.70
2018-03-03T03:22:15.415Z,67.80
2018-03-03T03:24:43.841Z,67.90
2018-03-03T03:27:12.250Z,68.10
2018-03-03T03:29:40.701Z,68.10
2018-03-03T03:32:09.298Z,67.90
2018-03-03T03:34:37.708Z,67.80
2018-03-03T03:37:06.139Z,67.90
2018-03-03T03:39:34.645Z,68.00
2018-03-03T03:42:03.026Z,68.00
2018-03-03T03:44:31.455Z,68.20
2018-03-03T03:47:00.670Z,68.20
2018-03-03T03:49:29.050Z,68.20
2018-03-03T03:51:57.450Z,68.20
2018-03-03T03:54:25.874Z,68.20
2018-03-03T03:56:55.222Z,69.30
2018-03-03T03:59:23.595Z,68.40
2018-03-03T04:01:51.971Z,68.60
2018-03-03T04:04:20.365Z,68.40
2018-03-03T04:06:48.793Z,68.50
2018-03-03T04:09:18.792Z,68.70
2018-03-03T04:11:47.222Z,69.40
2018-03-03T04:14:15.864Z,68.60
2018-03-03T04:16:44.255Z,68.50
2018-03-03T04:19:23.518Z,68.30
2018-03-03T04:21:52.530Z,68.30
2018-03-03T04:24:21.030Z,68.30
2018-03-03T04:26:49.440Z,68.30
2018-03-03T04:29:18.650Z,68.60
2018-03-03T04:31:47.853Z,68.80
2018-03-03T04:34:16.243Z,68.80
2018-03-03T04:36:44.709Z,68.80
2018-03-03T04:39:13.787Z,69.20
2018-03-03T04:41:43.134Z,69.40
2018-03-03T04:44:12.019Z,69.40
2018-03-03T04:46:40.456Z,69.30
2018-03-03T04:49:09.806Z,69.50
2018-03-03T04:51:38.269Z,69.60
2018-03-03T04:54:06.735Z,69.50
2018-03-03T04:56:35.894Z,69.80
2018-03-03T04:59:10.016Z,69.80
2018-03-03T05:01:40.835Z,69.60
2018-03-03T05:07:23.686Z,69.80
2018-03-03T05:09:52.293Z,69.90
2018-03-03T05:12:21.441Z,70.00
2018-03-03T05:14:55.559Z,69.90
2018-03-03T05:17:29.550Z,69.90
2018-03-03T05:20:03.488Z,69.90
2018-03-03T05:22:37.410Z,70.30
2018-03-03T05:25:11.729Z,70.20
2018-03-03T05:27:46.499Z,71.10
2018-03-03T05:30:20.730Z,71.10
2018-03-03T05:32:55.085Z,71.90
2018-03-03T05:38:42.649Z,71.10
2018-03-03T05:41:20.277Z,71.20
2018-03-03T05:47:01.499Z,70.50
2018-03-03T05:49:37.256Z,70.50
2018-03-03T05:55:19.493Z,70.60
2018-03-03T05:57:54.934Z,70.30
2018-03-03T06:00:33.337Z,70.00
2018-03-03T06:03:10.660Z,70.10
2018-03-03T06:05:45.434Z,70.20
2018-03-03T06:11:20.354Z,69.90
2018-03-03T06:13:49.557Z,69.60
2018-03-03T06:16:17.980Z,69.60
2018-03-03T06:18:46.449Z,69.30
2018-03-03T06:21:14.873Z,69.10
2018-03-03T06:23:43.255Z,69.30
2018-03-03T06:26:12.426Z,69.10
2018-03-03T06:28:40.848Z,69.20
2018-03-03T06:31:09.258Z,69.00
2018-03-03T06:33:37.635Z,68.90
2018-03-03T06:36:06.055Z,68.70
2018-03-03T06:38:34.429Z,68.60
2018-03-03T06:41:02.821Z,68.00
2018-03-03T06:43:31.275Z,67.60
2018-03-03T06:45:59.709Z,67.70
2018-03-03T06:48:28.162Z,67.70
2018-03-03T06:50:57.365Z,67.60
2018-03-03T06:53:26.609Z,67.10
2018-03-03T06:55:54.992Z,67.00
2018-03-03T06:58:23.372Z,66.10
2018-03-03T07:00:51.760Z,66.20
2018-03-03T07:03:20.178Z,65.80
2018-03-03T07:05:49.398Z,65.30
2018-03-03T07:08:17.804Z,65.20
2018-03-03T07:10:46.252Z,64.90
2018-03-03T07:13:14.674Z,64.10
2018-03-03T07:15:43.866Z,63.40
2018-03-03T07:18:12.354Z,62.90
2018-03-03T07:20:41.468Z,62.50
2018-03-03T07:23:09.908Z,62.10
2018-03-03T07:25:38.325Z,61.50
2018-03-03T07:28:06.878Z,61.20
2018-03-03T07:30:35.305Z,60.30
2018-03-03T07:33:05.030Z,59.40
2018-03-03T07:35:34.195Z,59.00
2018-03-03T07:38:02.721Z,59.00
2018-03-03T07:40:31.177Z,58.80
2018-03-03T07:43:00.320Z,58.90
2018-03-03T07:45:28.898Z,58.90
2018-03-03T07:47:57.266Z,58.90
2018-03-03T07:50:25.670Z,59.30
2018-03-03T07:52:54.110Z,59.80
2018-03-03T07:55:22.525Z,60.70
2018-03-03T07:57:51.462Z,61.60
2018-03-03T08:00:21.984Z,61.80
2018-03-03T08:02:51.101Z,63.40
2018-03-03T08:05:21.048Z,63.80
2018-03-03T08:07:51.164Z,64.70
2018-03-03T08:10:22.721Z,65.50
2018-03-03T08:12:52.709Z,65.50
2018-03-03T08:15:23.133Z,66.00
2018-03-03T08:17:53.333Z,66.20
2018-03-03T08:20:23.561Z,66.70
2018-03-03T08:22:53.963Z,67.00
2018-03-03T08:25:23.818Z,67.60
2018-03-03T08:27:53.685Z,67.50
2018-03-03T08:30:22.754Z,67.90
2018-03-03T08:32:52.825Z,68.40
2018-03-03T08:35:25.971Z,67.90
2018-03-03T08:37:56.702Z,68.70
2018-03-03T08:40:27.210Z,68.80
2018-03-03T08:42:56.133Z,68.80
2018-03-03T08:45:25.945Z,68.60
2018-03-03T08:47:55.110Z,69.50
2018-03-03T08:50:23.486Z,69.50
2018-03-03T08:52:51.880Z,69.80
2018-03-03T08:55:20.250Z,69.10
2018-03-03T08:57:48.695Z,68.80
2018-03-03T09:00:17.909Z,67.60
2018-03-03T09:02:46.697Z,67.50
2018-03-03T09:05:15.227Z,67.30
2018-03-03T09:07:44.135Z,67.20
2018-03-03T09:10:12.845Z,66.30
2018-03-03T09:12:42.060Z,65.40
2018-03-03T09:15:10.460Z,65.40
2018-03-03T09:17:38.893Z,65.70
2018-03-03T09:20:08.658Z,65.90
2018-03-03T09:22:37.757Z,65.80
2018-03-03T09:25:06.234Z,66.50
2018-03-03T09:27:34.710Z,66.40
2018-03-03T09:30:03.172Z,66.10
2018-03-03T09:32:31.622Z,66.50
2018-03-03T09:35:00.833Z,66.60
2018-03-03T09:37:30.045Z,66.60
2018-03-03T09:39:58.771Z,65.80
2018-03-03T09:42:28.008Z,64.60
2018-03-03T09:44:57.254Z,64.40
2018-03-03T09:47:26.142Z,64.40
2018-03-03T09:49:54.814Z,64.00
2018-03-03T09:52:23.306Z,64.10
2018-03-03T09:54:52.079Z,64.00
2018-03-03T09:57:20.492Z,64.20
2018-03-03T09:59:48.869Z,64.60
2018-03-03T10:02:17.329Z,65.30
2018-03-03T10:04:45.737Z,65.10
2018-03-03T10:07:14.126Z,64.70
2018-03-03T10:09:42.642Z,65.20
2018-03-03T10:12:13.487Z,65.10
2018-03-03T10:14:43.216Z,64.70
2018-03-03T10:17:12.036Z,64.40
2018-03-03T10:19:41.302Z,63.60
2018-03-03T10:22:13.235Z,63.10
2018-03-03T10:24:42.256Z,63.10
2018-03-03T10:27:12.495Z,62.20
2018-03-03T10:29:41.980Z,62.00
2018-03-03T10:32:12.520Z,61.00
2018-03-03T10:34:42.262Z,60.20
2018-03-03T10:37:13.369Z,58.20
2018-03-03T10:39:43.538Z,57.40
2018-03-03T10:42:13.155Z,55.00
2018-03-03T10:44:41.899Z,55.00
2018-03-03T10:47:10.297Z,53.40
2018-03-03T10:49:39.004Z,52.80
2018-03-03T10:52:07.998Z,52.20
2018-03-03T10:54:37.015Z,52.50
2018-03-03T10:57:05.554Z,52.30
2018-03-03T10:59:35.129Z,52.10
2018-03-03T11:02:04.527Z,52.10
2018-03-03T11:04:33.302Z,52.00
2018-03-03T11:07:02.261Z,52.00
2018-03-03T11:09:31.201Z,52.20
2018-03-03T11:12:00.394Z,53.00
2018-03-03T11:14:30.275Z,53.70
2018-03-03T11:16:59.101Z,53.70
2018-03-03T11:19:27.942Z,53.10
2018-03-03T11:21:56.634Z,52.60
2018-03-03T11:24:25.251Z,51.80
2018-03-03T11:26:53.701Z,51.00
2018-03-03T11:29:22.559Z,50.80
2018-03-03T11:31:51.670Z,51.40
2018-03-03T11:34:21.394Z,51.20
2018-03-03T11:36:50.357Z,51.20
2018-03-03T11:39:19.683Z,50.90
2018-03-03T11:41:49.764Z,50.60
2018-03-03T11:44:19.319Z,48.90
2018-03-03T11:46:48.449Z,48.80
2018-03-03T11:49:19.514Z,48.50
2018-03-03T11:51:49.615Z,48.10
2018-03-03T11:54:19.802Z,47.80
2018-03-03T11:56:48.906Z,47.70
2018-03-03T11:59:19.320Z,47.30
2018-03-03T12:01:48.953Z,47.30
2018-03-03T12:04:18.460Z,46.10
2018-03-03T12:06:48.687Z,43.70
2018-03-03T12:09:18.798Z,42.70
2018-03-03T12:11:50.690Z,42.70
2018-03-03T12:14:20.238Z,40.70
2018-03-03T12:16:49.334Z,38.30
2018-03-03T12:19:18.767Z,38.90
2018-03-03T12:21:48.691Z,38.70
2018-03-03T12:24:19.509Z,38.30
2018-03-03T12:26:49.757Z,38.30
2018-03-03T12:29:19.588Z,38.70
2018-03-03T12:31:49.954Z,38.70
2018-03-03T12:34:20.344Z,37.30
2018-03-03T12:36:50.079Z,36.40
2018-03-03T12:39:19.402Z,36.70
2018-03-03T12:41:48.732Z,36.40
2018-03-03T12:44:17.241Z,36.50
2018-03-03T12:46:46.592Z,38.10
2018-03-03T12:49:16.197Z,38.10
2018-03-03T12:51:45.734Z,38.00
2018-03-03T12:54:16.256Z,39.30
2018-03-03T12:56:44.753Z,39.30
2018-03-03T12:59:16.115Z,38.30
2018-03-03T13:01:44.604Z,38.30
2018-03-03T13:04:13.704Z,39.50
2018-03-03T13:06:42.844Z,40.40
2018-03-03T13:09:12.895Z,41.70
2018-03-03T13:11:43.305Z,45.80
2018-03-03T13:14:12.914Z,45.80
2018-03-03T13:16:43.383Z,47.50
2018-03-03T13:19:13.017Z,47.50
2018-03-03T13:21:43.078Z,48.10
2018-03-03T13:24:13.662Z,49.10
2018-03-03T13:26:43.314Z,49.10
2018-03-03T13:29:13.450Z,50.20
2018-03-03T13:31:43.210Z,50.20
2018-03-03T13:34:13.123Z,50.60
2018-03-03T13:36:43.108Z,50.90
2018-03-03T13:39:13.145Z,50.90
2018-03-03T13:41:42.777Z,51.40
2018-03-03T13:44:12.757Z,51.40
2018-03-03T13:46:42.906Z,51.70
2018-03-03T13:49:12.930Z,51.80
2018-03-03T13:51:42.316Z,52.10
2018-03-03T13:54:16.554Z,51.90
2018-03-03T13:56:51.416Z,51.40
2018-03-03T13:59:21.393Z,51.20
2018-03-03T14:01:51.439Z,51.50
2018-03-03T14:04:20.789Z,51.60
2018-03-03T14:06:49.585Z,51.60
2018-03-03T14:09:19.486Z,51.60
2018-03-03T14:11:48.392Z,52.20
2018-03-03T14:14:17.483Z,50.90
2018-03-03T14:16:46.375Z,50.40
2018-03-03T14:19:16.358Z,51.30
2018-03-03T14:21:45.063Z,51.40
2018-03-03T14:24:13.762Z,51.30
2018-03-03T14:26:42.230Z,51.20
2018-03-03T14:29:11.412Z,51.90
2018-03-03T14:31:40.819Z,52.40
2018-03-03T14:34:10.846Z,52.90
2018-03-03T14:36:40.691Z,53.20
2018-03-03T14:39:10.242Z,53.00
2018-03-03T14:41:40.632Z,52.70
2018-03-03T14:44:10.325Z,52.30
2018-03-03T14:46:40.209Z,52.30
2018-03-03T14:49:12.625Z,51.80
2018-03-03T14:51:45.266Z,51.80
2018-03-03T14:54:16.047Z,52.30
2018-03-03T14:56:46.581Z,52.40
2018-03-03T14:59:16.741Z,52.40
2018-03-03T15:01:46.812Z,52.30
2018-03-03T15:04:16.852Z,52.80
2018-03-03T15:06:54.748Z,53.40
2018-03-03T15:09:28.481Z,53.80
2018-03-03T15:11:57.378Z,54.60
2018-03-03T15:14:26.964Z,54.90
2018-03-03T15:16:56.990Z,54.90
2018-03-03T15:19:27.106Z,54.90
2018-03-03T15:21:56.835Z,54.70
2018-03-03T15:24:26.833Z,54.80
2018-03-03T15:26:56.380Z,55.20
2018-03-03T15:29:26.635Z,55.30
2018-03-03T15:31:56.418Z,55.60
2018-03-03T15:34:26.961Z,55.90
2018-03-03T15:36:55.378Z,56.20
2018-03-03T15:39:26.924Z,56.00
2018-03-03T15:41:58.080Z,56.70
2018-03-03T15:44:28.148Z,56.70
2018-03-03T15:46:59.204Z,56.70
2018-03-03T15:49:29.345Z,57.00
2018-03-03T15:51:59.058Z,57.00
2018-03-03T15:54:28.317Z,57.50
2018-03-03T15:56:58.516Z,58.00
2018-03-03T15:59:28.071Z,58.00
2018-03-03T16:01:58.014Z,57.90
2018-03-03T16:04:26.904Z,57.90
2018-03-03T16:06:57.139Z,57.80
2018-03-03T16:09:26.137Z,57.70
2018-03-03T16:11:55.223Z,57.80
2018-03-03T16:14:24.168Z,58.00
2018-03-03T16:16:52.934Z,57.90
2018-03-03T16:19:21.452Z,58.00
2018-03-03T16:21:50.004Z,58.10
2018-03-03T16:24:18.974Z,58.20
2018-03-03T16:26:48.956Z,58.80
2018-03-03T16:29:18.602Z,59.10
2018-03-03T16:31:47.362Z,59.10
2018-03-03T16:34:15.955Z,59.10
2018-03-03T16:36:44.930Z,59.20
2018-03-03T16:39:13.343Z,59.10
2018-03-03T16:41:41.746Z,59.20
2018-03-03T16:44:10.189Z,59.40
2018-03-03T16:46:39.008Z,59.60
2018-03-03T16:49:07.433Z,59.70
2018-03-03T16:51:36.039Z,59.60
2018-03-03T16:54:04.792Z,59.60
2018-03-03T16:56:33.641Z,59.80
2018-03-03T16:59:02.709Z,59.90
2018-03-03T17:01:32.349Z,60.10
2018-03-03T17:04:01.210Z,60.10
2018-03-03T17:06:29.611Z,60.70
2018-03-03T17:08:58.370Z,60.80
2018-03-03T17:11:26.910Z,60.90
2018-03-03T17:13:55.357Z,61.30
2018-03-03T17:16:26.454Z,61.10
2018-03-03T17:18:55.106Z,61.10
2018-03-03T17:21:24.423Z,61.00
2018-03-03T17:23:55.746Z,60.90
2018-03-03T17:26:24.690Z,61.00
2018-03-03T17:28:53.596Z,60.90
2018-03-03T17:31:22.683Z,61.10
2018-03-03T17:33:52.296Z,61.30
2018-03-03T17:36:21.180Z,61.30
2018-03-03T17:38:50.450Z,61.20
2018-03-03T17:41:21.151Z,61.50
2018-03-03T17:43:51.371Z,61.80
2018-03-03T17:46:21.259Z,61.80
2018-03-03T17:48:52.395Z,62.10
2018-03-03T17:51:21.895Z,62.10
2018-03-03T17:53:51.122Z,62.20
2018-03-03T17:56:21.014Z,61.90
2018-03-03T17:58:49.802Z,61.90
2018-03-03T18:01:23.822Z,61.80
2018-03-03T18:03:52.594Z,61.70
2018-03-03T18:06:23.901Z,61.70
2018-03-03T18:08:53.529Z,62.50
2018-03-03T18:11:24.100Z,61.90
2018-03-03T18:13:57.972Z,62.10
2018-03-03T18:16:27.283Z,62.00
2018-03-03T18:18:56.628Z,61.80
2018-03-03T18:21:27.653Z,61.80
2018-03-03T18:23:57.340Z,62.50
2018-03-03T18:26:27.750Z,62.50
2018-03-03T18:28:56.721Z,62.50
2018-03-03T18:31:27.240Z,62.50
2018-03-03T18:33:56.723Z,62.50
2018-03-03T18:36:26.037Z,62.20
2018-03-03T18:38:55.676Z,61.70
2018-03-03T18:41:25.616Z,61.70
2018-03-03T18:43:55.707Z,61.80
2018-03-03T18:46:25.063Z,61.70
2018-03-03T18:48:55.658Z,61.60
2018-03-03T18:51:33.828Z,61.50
2018-03-03T18:54:02.909Z,61.80
2018-03-03T18:56:32.476Z,62.10
2018-03-03T18:59:00.882Z,62.10
2018-03-03T19:01:29.337Z,62.20
2018-03-03T19:03:57.719Z,62.90
2018-03-03T19:06:27.513Z,62.20
2018-03-03T19:08:56.165Z,62.20
2018-03-03T19:11:25.458Z,62.40
2018-03-03T19:13:54.598Z,62.50
2018-03-03T19:16:30.885Z,62.50
2018-03-03T19:18:59.334Z,62.60
2018-03-03T19:21:27.821Z,62.80
2018-03-03T19:23:57.457Z,63.20
2018-03-03T19:26:26.416Z,63.20
2018-03-03T19:28:55.122Z,63.20
2018-03-03T19:31:23.571Z,63.20
2018-03-03T19:33:52.443Z,63.20
2018-03-03T19:36:20.820Z,63.20
2018-03-03T19:38:49.211Z,63.20
2018-03-03T19:41:17.603Z,63.20
2018-03-03T19:43:45.974Z,63.20
2018-03-03T19:46:14.681Z,63.10
2018-03-03T19:48:43.124Z,63.10
2018-03-03T19:51:11.730Z,63.20
2018-03-03T19:53:40.143Z,63.50
2018-03-03T19:56:10.561Z,63.70
2018-03-03T19:58:39.326Z,63.40
2018-03-03T20:01:09.009Z,63.80
2018-03-03T20:03:37.671Z,63.10
2018-03-03T20:06:06.819Z,63.10
2018-03-03T20:08:35.923Z,63.10
2018-03-03T20:11:04.754Z,63.60
2018-03-03T20:13:34.380Z,64.10
2018-03-03T20:16:03.226Z,64.10
2018-03-03T20:18:32.802Z,64.30
2018-03-03T20:21:01.494Z,65.00
2018-03-03T20:23:31.015Z,64.30
2018-03-03T20:26:00.057Z,65.00
2018-03-03T20:28:29.287Z,64.50
2018-03-03T20:30:58.593Z,64.40
2018-03-03T20:33:27.348Z,64.50
2018-03-03T20:35:56.791Z,64.50
2018-03-03T20:38:25.445Z,64.50
2018-03-03T20:40:53.965Z,64.40
2018-03-03T20:43:23.398Z,64.30
2018-03-03T20:45:52.638Z,64.10
2018-03-03T20:48:21.016Z,64.10
2018-03-03T20:50:49.714Z,64.00
2018-03-03T20:53:18.274Z,64.00
2018-03-03T20:55:47.009Z,64.60
2018-03-03T20:58:15.676Z,64.70
2018-03-03T21:00:44.539Z,64.80
2018-03-03T21:03:12.995Z,64.70
2018-03-03T21:05:41.545Z,64.40
2018-03-03T21:08:10.127Z,64.10
2018-03-03T21:10:39.389Z,63.90
2018-03-03T21:13:08.299Z,64.50
2018-03-03T21:15:37.548Z,63.70
2018-03-03T21:18:07.515Z,63.70
2018-03-03T21:20:36.599Z,64.50
2018-03-03T21:23:05.883Z,63.90
2018-03-03T21:25:34.393Z,63.90
2018-03-03T21:28:02.908Z,64.00
2018-03-03T21:30:32.273Z,63.80
2018-03-03T21:33:00.650Z,63.80
2018-03-03T21:35:29.123Z,65.20
2018-03-03T21:37:57.512Z,65.50
2018-03-03T21:40:26.381Z,65.20
2018-03-03T21:42:55.044Z,65.20
2018-03-03T21:45:23.477Z,65.10
2018-03-03T21:47:51.950Z,64.90
2018-03-03T21:50:20.327Z,64.70
2018-03-03T21:52:48.738Z,64.50
2018-03-03T21:55:19.334Z,64.30
2018-03-03T21:57:47.701Z,64.30
2018-03-03T22:00:16.708Z,64.30
2018-03-03T22:02:45.142Z,64.40
2018-03-03T22:05:13.653Z,63.70
2018-03-03T22:07:42.079Z,63.50
2018-03-03T22:10:10.588Z,63.80
2018-03-03T22:12:39.706Z,64.00
2018-03-03T22:15:08.107Z,64.20
2018-03-03T22:17:36.523Z,64.00
2018-03-03T22:20:05.743Z,64.50
2018-03-03T22:22:34.138Z,65.20
2018-03-03T22:25:02.523Z,64.80
2018-03-03T22:27:31.189Z,65.10
2018-03-03T22:29:59.601Z,65.10
2018-03-03T22:32:28.646Z,65.10
2018-03-03T22:34:57.102Z,65.30
2018-03-03T22:37:25.534Z,65.10
2018-03-03T22:39:53.925Z,65.30
2018-03-03T22:42:22.302Z,65.20
2018-03-03T22:44:50.988Z,65.40
2018-03-03T22:47:19.939Z,65.30
2018-03-03T22:49:49.101Z,65.40
2018-03-03T22:52:17.633Z,65.30
2018-03-03T22:54:46.057Z,65.20
2018-03-03T22:57:14.791Z,65.50
2018-03-03T22:59:44.184Z,65.50
2018-03-03T23:02:13.636Z,65.80
2018-03-03T23:04:42.106Z,65.80
2018-03-03T23:07:10.492Z,65.80
2018-03-03T23:09:38.888Z,65.80
2018-03-03T23:12:08.338Z,66.10
2018-03-03T23:14:37.082Z,65.90
2018-03-03T23:17:05.525Z,66.10
2018-03-03T23:19:34.503Z,66.40
2018-03-03T23:22:03.113Z,66.70
2018-03-03T23:24:32.118Z,66.70
2018-03-03T23:27:02.031Z,67.20
2018-03-03T23:29:31.780Z,67.20
2018-03-03T23:32:01.167Z,67.40
2018-03-03T23:34:30.431Z,67.70
2018-03-03T23:36:59.102Z,67.60
2018-03-03T23:39:27.694Z,67.90
2018-03-03T23:41:56.181Z,67.70
2018-03-03T23:44:24.776Z,68.00
2018-03-03T23:46:53.950Z,68.50
2018-03-03T23:49:23.272Z,68.30
2018-03-03T23:51:52.568Z,68.60
2018-03-03T23:54:22.655Z,68.50
2018-03-03T23:56:51.061Z,68.70
2018-03-03T23:59:19.484Z,68.70
